Palmdale Regional,USAF Plant 42 Airport Palmdale US
ICAO: KPMD
IATA: PMD
Category: Medium
Scheduled Services: Yes

Elevation: 2543 ft
TransAlt. 18000 ft.

Airport Communications:
JOSHUA APP/DEP:124.55
ASOS:118.275
CTAF:123.7
GND:121.9
TWR:123.7

KPMD Zoom In..

Runways:

(A) RW 04 length 12001 ft width 150 ft
---- / hdg 37

(B) RW 07 length 12002 ft width 200 ft
---- / hdg 71

(C) RW 22 length 12001 ft width 150 ft
---- / hdg 217

(D) RW 25 length 12002 ft width 200 ft
ILS 110.70 / hdg 251

Location; KPMD
Day. 23 / Time. 07.53 Zulu
* Altimeter: 30.09
* Temperature: 28° c. 82.4°f.
* Wind from: 280° Speed 13 kn.
Dewpoint: 13° c.
Visibility: 10 Statute Miles.
Clouds: Clear (automated report).

KPMD 230753Z AUTO 28013KT 10SM CLR 28/13 A3009 RMK AO2 SLP153 T02830133 403830233


Wind From 280°
Speed 13 kn.

 
 
jpsmedia.com for Web Design worldairports.se 2018   terms of use